createdAt,value
2023-11-07T00:00:30.212Z,10.87
2023-11-07T00:03:17.978Z,10.86
2023-11-07T00:05:45.430Z,10.78
2023-11-07T00:08:12.812Z,10.71
2023-11-07T00:10:39.834Z,10.73
2023-11-07T00:13:08.593Z,10.70
2023-11-07T00:15:35.732Z,10.74
2023-11-07T00:18:03.395Z,10.79
2023-11-07T00:20:30.525Z,10.80
2023-11-07T00:22:58.745Z,10.78
2023-11-07T00:25:26.689Z,10.76
2023-11-07T00:27:53.848Z,10.68
2023-11-07T00:30:22.267Z,10.74
2023-11-07T00:32:50.014Z,10.73
2023-11-07T00:35:17.354Z,10.70
2023-11-07T00:37:44.579Z,10.70
2023-11-07T00:40:13.146Z,10.72
2023-11-07T00:42:40.351Z,10.62
2023-11-07T00:45:08.524Z,10.80
2023-11-07T00:47:38.072Z,10.82
2023-11-07T00:50:08.241Z,10.79
2023-11-07T00:52:35.788Z,10.76
2023-11-07T00:55:03.431Z,10.74
2023-11-07T00:57:30.745Z,10.66
2023-11-07T00:59:57.819Z,10.50
2023-11-07T01:02:25.427Z,10.57
2023-11-07T01:04:55.165Z,10.59
2023-11-07T01:07:22.514Z,10.62
2023-11-07T01:09:49.728Z,10.62
2023-11-07T01:12:17.020Z,10.62
2023-11-07T01:14:44.580Z,10.55
2023-11-07T01:17:12.021Z,10.56
2023-11-07T01:19:39.114Z,10.59
2023-11-07T01:22:08.114Z,10.61
2023-11-07T01:24:35.233Z,10.62
2023-11-07T01:27:02.616Z,10.60
2023-11-07T01:29:29.622Z,10.52
2023-11-07T01:31:56.887Z,10.45
2023-11-07T01:34:24.014Z,10.41
2023-11-07T01:36:51.555Z,10.40
2023-11-07T01:39:20.135Z,10.34
2023-11-07T01:41:47.502Z,10.38
2023-11-07T01:44:14.867Z,10.37
2023-11-07T01:46:42.293Z,10.38
2023-11-07T01:49:10.276Z,10.40
2023-11-07T01:51:38.216Z,10.36
2023-11-07T01:54:06.083Z,10.34
2023-11-07T01:56:34.751Z,10.26
2023-11-07T01:59:02.701Z,10.13
2023-11-07T02:01:34.389Z,10.18
2023-11-07T02:04:02.645Z,10.18
2023-11-07T02:06:30.148Z,10.17
2023-11-07T02:08:57.536Z,10.17
2023-11-07T02:11:26.059Z,10.14
2023-11-07T02:13:54.646Z,10.14
2023-11-07T02:16:22.009Z,10.02
2023-11-07T02:18:49.274Z,9.93
2023-11-07T02:21:17.030Z,10.07
2023-11-07T02:23:45.721Z,10.06
2023-11-07T02:26:13.041Z,10.07
2023-11-07T02:28:40.098Z,10.02
2023-11-07T02:31:07.468Z,9.97
2023-11-07T02:33:35.212Z,9.94
2023-11-07T02:36:02.773Z,9.89
2023-11-07T02:38:30.137Z,9.82
2023-11-07T02:40:58.883Z,9.82
2023-11-07T02:43:26.274Z,9.77
2023-11-07T02:45:54.051Z,9.70
2023-11-07T02:48:21.562Z,9.72
2023-11-07T02:50:48.875Z,9.71
2023-11-07T02:53:16.549Z,9.71
2023-11-07T02:55:43.897Z,9.80
2023-11-07T02:58:12.630Z,9.71
2023-11-07T03:00:40.013Z,9.76
2023-11-07T03:03:07.251Z,9.74
2023-11-07T03:05:34.981Z,9.73
2023-11-07T03:08:03.029Z,9.70
2023-11-07T03:10:30.421Z,9.70
2023-11-07T03:12:57.905Z,9.67
2023-11-07T03:15:26.509Z,9.64
2023-11-07T03:17:53.603Z,9.57
2023-11-07T03:20:21.593Z,9.51
2023-11-07T03:22:48.692Z,9.60
2023-11-07T03:25:17.903Z,9.60
2023-11-07T03:27:44.930Z,9.60
2023-11-07T03:30:12.925Z,9.55
2023-11-07T03:32:42.437Z,9.53
2023-11-07T03:35:10.270Z,9.49
2023-11-07T03:37:38.779Z,9.56
2023-11-07T03:40:07.588Z,9.49
2023-11-07T03:42:35.561Z,9.48
2023-11-07T03:45:03.183Z,9.41
2023-11-07T03:47:30.937Z,9.44
2023-11-07T03:50:00.978Z,9.40
2023-11-07T03:52:28.403Z,9.35
2023-11-07T03:54:55.813Z,9.39
2023-11-07T03:57:27.393Z,9.40
2023-11-07T03:59:56.901Z,9.43
2023-11-07T04:02:24.587Z,9.41
2023-11-07T04:04:52.027Z,9.44
2023-11-07T04:07:23.043Z,9.40
2023-11-07T04:09:52.805Z,9.28
2023-11-07T04:12:22.979Z,9.28
2023-11-07T04:14:51.646Z,9.26
2023-11-07T04:17:22.884Z,9.28
2023-11-07T04:19:50.297Z,9.35
2023-11-07T04:22:17.369Z,9.38
2023-11-07T04:24:48.833Z,9.37
2023-11-07T04:27:22.486Z,9.39
2023-11-07T04:29:52.370Z,9.47
2023-11-07T04:32:20.043Z,9.43
2023-11-07T04:34:52.002Z,9.47
2023-11-07T04:37:30.003Z,9.39
2023-11-07T04:39:58.884Z,9.34
2023-11-07T04:42:34.015Z,9.38
2023-11-07T04:45:03.254Z,9.37
2023-11-07T04:47:41.300Z,9.43
2023-11-07T04:50:09.447Z,9.74
2023-11-07T04:52:36.912Z,10.15
2023-11-07T04:55:10.783Z,10.14
2023-11-07T04:57:38.253Z,10.13
2023-11-07T05:00:07.062Z,9.87
2023-11-07T05:02:34.902Z,9.43
2023-11-07T05:05:03.201Z,9.48
2023-11-07T05:07:31.275Z,9.29
2023-11-07T05:09:59.760Z,8.89
2023-11-07T05:12:29.122Z,8.69
2023-11-07T05:14:56.275Z,8.64
2023-11-07T05:17:23.768Z,8.71
2023-11-07T05:19:50.928Z,8.67
2023-11-07T05:22:18.419Z,8.31
2023-11-07T05:24:45.525Z,8.25
2023-11-07T05:27:12.898Z,7.86
2023-11-07T05:29:42.672Z,7.91
2023-11-07T05:32:15.838Z,8.10
2023-11-07T05:34:46.269Z,8.05
2023-11-07T05:37:14.234Z,8.19
2023-11-07T05:39:41.304Z,8.16
2023-11-07T05:42:11.263Z,8.18
2023-11-07T05:44:45.595Z,8.35
2023-11-07T05:47:13.336Z,8.37
2023-11-07T05:49:42.516Z,8.32
2023-11-07T05:52:20.424Z,8.41
2023-11-07T05:54:52.112Z,9.25
2023-11-07T05:57:22.349Z,9.70
2023-11-07T05:59:51.079Z,9.94
2023-11-07T06:02:18.453Z,10.14
2023-11-07T06:04:45.875Z,10.14
2023-11-07T06:07:13.400Z,10.26
2023-11-07T06:09:40.834Z,10.26
2023-11-07T06:12:10.795Z,10.21
2023-11-07T06:14:39.541Z,10.23
2023-11-07T06:17:08.803Z,10.25
2023-11-07T06:19:35.780Z,10.17
2023-11-07T06:22:03.277Z,10.35
2023-11-07T06:24:30.621Z,10.45
2023-11-07T06:26:58.095Z,10.54
2023-11-07T06:29:26.188Z,10.61
2023-11-07T06:31:59.565Z,10.22
2023-11-07T06:34:31.281Z,10.62
2023-11-07T06:36:58.629Z,10.76
2023-11-07T06:39:25.534Z,10.85
2023-11-07T06:41:54.736Z,10.91
2023-11-07T06:44:22.000Z,10.93
2023-11-07T06:46:52.538Z,10.99
2023-11-07T06:49:19.952Z,11.05
2023-11-07T06:51:48.731Z,11.12
2023-11-07T06:54:19.491Z,11.15
2023-11-07T06:56:48.088Z,11.13
2023-11-07T06:59:15.255Z,11.21
2023-11-07T07:01:45.433Z,11.06
2023-11-07T07:04:12.742Z,11.09
2023-11-07T07:06:41.234Z,11.09
2023-11-07T07:09:10.080Z,11.62
2023-11-07T07:11:39.479Z,11.67
2023-11-07T07:14:07.211Z,11.73
2023-11-07T07:16:34.563Z,11.72
2023-11-07T07:19:07.427Z,11.76
2023-11-07T07:21:39.544Z,11.57
2023-11-07T07:24:22.528Z,11.73
2023-11-07T07:26:51.908Z,11.44
2023-11-07T07:29:18.778Z,11.86
2023-11-07T07:31:46.116Z,11.79
2023-11-07T07:34:13.582Z,11.99
2023-11-07T07:36:48.638Z,12.00
2023-11-07T07:39:31.183Z,12.21
2023-11-07T07:42:01.399Z,12.28
2023-11-07T07:44:28.784Z,12.39
2023-11-07T07:46:57.918Z,12.49
2023-11-07T07:49:29.379Z,12.40
2023-11-07T07:52:01.088Z,12.57
2023-11-07T07:54:52.915Z,12.66
2023-11-07T07:57:21.460Z,12.76
2023-11-07T07:59:48.785Z,12.83
2023-11-07T08:02:17.644Z,12.82
2023-11-07T08:04:44.725Z,12.77
2023-11-07T08:07:18.144Z,12.81
2023-11-07T08:09:48.299Z,12.86
2023-11-07T08:12:18.952Z,13.02
2023-11-07T08:14:48.134Z,12.91
2023-11-07T08:17:16.439Z,13.05
2023-11-07T08:19:43.597Z,13.30
2023-11-07T08:22:12.080Z,13.30
2023-11-07T08:24:39.974Z,13.79
2023-11-07T08:27:09.159Z,13.83
2023-11-07T08:29:36.125Z,13.82
2023-11-07T08:32:07.996Z,13.82
2023-11-07T08:34:35.617Z,13.87
2023-11-07T08:37:09.240Z,14.02
2023-11-07T08:39:42.130Z,14.07
2023-11-07T08:42:12.015Z,14.25
2023-11-07T08:44:40.127Z,14.33
2023-11-07T08:47:07.782Z,14.44
2023-11-07T08:49:35.895Z,14.42
2023-11-07T08:52:05.979Z,14.55
2023-11-07T08:54:37.846Z,14.46
2023-11-07T08:57:05.904Z,14.37
2023-11-07T08:59:37.350Z,14.60
2023-11-07T09:02:04.962Z,14.76
2023-11-07T09:04:32.022Z,14.93
2023-11-07T09:06:59.905Z,14.85
2023-11-07T09:09:30.692Z,15.13
2023-11-07T09:11:58.755Z,14.92
2023-11-07T09:14:26.232Z,15.19
2023-11-07T09:16:54.942Z,15.48
2023-11-07T09:19:22.035Z,15.24
2023-11-07T09:21:49.432Z,15.57
2023-11-07T09:24:16.971Z,15.31
2023-11-07T09:26:44.842Z,15.75
2023-11-07T09:29:12.099Z,15.51
2023-11-07T09:31:39.644Z,15.66
2023-11-07T09:34:10.302Z,15.76
2023-11-07T09:39:22.618Z,15.75
2023-11-07T09:41:52.256Z,15.67
2023-11-07T09:44:21.985Z,15.21
2023-11-07T09:46:55.515Z,15.69
2023-11-07T09:49:42.236Z,15.47
2023-11-07T09:52:12.194Z,16.00
2023-11-07T09:54:42.162Z,15.85
2023-11-07T09:57:10.336Z,16.30
2023-11-07T09:59:41.145Z,16.17
2023-11-07T10:02:09.449Z,16.26
2023-11-07T10:04:37.819Z,16.20
2023-11-07T10:07:06.559Z,16.09
2023-11-07T10:09:35.289Z,16.43
2023-11-07T10:12:02.528Z,16.53
2023-11-07T10:14:34.224Z,16.76
2023-11-07T10:17:05.472Z,17.09
2023-11-07T10:19:33.694Z,17.23
2023-11-07T10:22:07.858Z,17.14
2023-11-07T10:24:44.015Z,17.63
2023-11-07T10:27:12.285Z,17.70
2023-11-07T10:32:17.953Z,17.42
2023-11-07T10:34:45.262Z,17.89
2023-11-07T10:37:19.218Z,17.77
2023-11-07T10:39:57.033Z,17.79
2023-11-07T10:42:24.033Z,17.84
2023-11-07T10:45:01.282Z,17.82
2023-11-07T10:47:37.003Z,17.65
2023-11-07T10:50:05.300Z,17.69
2023-11-07T10:52:33.968Z,17.97
2023-11-07T10:55:04.571Z,18.04
2023-11-07T10:57:37.267Z,17.81
2023-11-07T11:00:13.766Z,18.07
2023-11-07T11:02:43.087Z,17.71
2023-11-07T11:05:12.923Z,18.24
2023-11-07T11:07:56.794Z,18.29
2023-11-07T11:10:29.417Z,18.42
2023-11-07T11:12:57.484Z,18.40
2023-11-07T11:15:25.902Z,18.61
2023-11-07T11:17:59.259Z,18.67
2023-11-07T11:20:35.952Z,18.67
2023-11-07T11:23:14.707Z,18.69
2023-11-07T11:26:01.597Z,18.78
2023-11-07T11:28:38.648Z,18.81
2023-11-07T11:31:06.795Z,18.88
2023-11-07T11:33:37.444Z,18.94
2023-11-07T11:36:33.648Z,19.03
2023-11-07T11:39:02.399Z,19.01
2023-11-07T11:41:47.185Z,19.03
2023-11-07T11:44:16.376Z,19.14
2023-11-07T11:46:45.140Z,19.23
2023-11-07T11:49:17.996Z,19.22
2023-11-07T11:51:49.605Z,19.26
2023-11-07T11:54:53.479Z,19.23
2023-11-07T11:57:20.856Z,19.23
2023-11-07T11:59:58.247Z,19.28
2023-11-07T12:02:39.946Z,19.23
2023-11-07T12:05:18.166Z,19.50
2023-11-07T12:07:46.964Z,19.62
2023-11-07T12:10:18.284Z,19.76
2023-11-07T12:12:56.642Z,19.63
2023-11-07T12:15:26.981Z,19.89
2023-11-07T12:17:55.336Z,19.83
2023-11-07T12:20:22.424Z,19.77
2023-11-07T12:22:50.573Z,19.76
2023-11-07T12:25:21.658Z,19.72
2023-11-07T12:28:11.928Z,19.57
2023-11-07T12:30:38.747Z,19.47
2023-11-07T12:33:10.056Z,19.39
2023-11-07T12:35:38.327Z,19.38
2023-11-07T12:38:08.426Z,19.37
2023-11-07T12:40:38.083Z,19.46
2023-11-07T12:43:08.454Z,19.51
2023-11-07T12:45:40.325Z,19.52
2023-11-07T12:48:13.355Z,19.58
2023-11-07T12:50:59.577Z,19.62
2023-11-07T12:53:27.180Z,19.65
2023-11-07T12:55:55.994Z,19.65
2023-11-07T12:58:30.963Z,19.61
2023-11-07T13:00:59.856Z,19.57
2023-11-07T13:03:30.093Z,19.58
2023-11-07T13:05:59.322Z,19.61
2023-11-07T13:08:28.743Z,19.60
2023-11-07T13:11:13.667Z,19.50
2023-11-07T13:13:43.082Z,19.77
2023-11-07T13:16:10.475Z,19.80
2023-11-07T13:18:38.634Z,19.81
2023-11-07T13:21:07.195Z,19.71
2023-11-07T13:23:34.892Z,19.60
2023-11-07T13:26:02.239Z,19.49
2023-11-07T13:28:30.939Z,19.36
2023-11-07T13:30:57.984Z,19.23
2023-11-07T13:33:25.639Z,19.34
2023-11-07T13:35:52.786Z,19.28
2023-11-07T13:38:22.654Z,19.29
2023-11-07T13:40:49.748Z,19.26
2023-11-07T13:43:17.416Z,19.27
2023-11-07T13:45:48.995Z,19.35
2023-11-07T13:48:20.843Z,19.43
2023-11-07T13:50:48.233Z,19.41
2023-11-07T13:53:16.889Z,19.42
2023-11-07T13:55:46.807Z,19.40
2023-11-07T13:58:15.630Z,19.31
2023-11-07T14:00:47.298Z,19.25
2023-11-07T14:03:15.136Z,19.14
2023-11-07T14:05:43.072Z,19.15
2023-11-07T14:08:10.537Z,19.10
2023-11-07T14:10:38.742Z,19.00
2023-11-07T14:13:06.289Z,18.93
2023-11-07T14:15:34.359Z,18.83
2023-11-07T14:18:15.964Z,18.79
2023-11-07T14:20:48.866Z,18.76
2023-11-07T14:23:16.994Z,18.77
2023-11-07T14:25:45.262Z,18.85
2023-11-07T14:28:13.932Z,18.91
2023-11-07T14:30:47.612Z,18.91
2023-11-07T14:33:18.607Z,18.93
2023-11-07T14:35:47.395Z,18.95
2023-11-07T14:38:17.018Z,18.71
2023-11-07T14:40:46.608Z,18.80
2023-11-07T14:43:17.374Z,18.74
2023-11-07T14:45:45.747Z,18.67
2023-11-07T14:48:15.220Z,18.62
2023-11-07T14:50:44.864Z,18.51
2023-11-07T14:53:16.097Z,18.40
2023-11-07T14:55:44.181Z,18.28
2023-11-07T14:58:11.872Z,18.12
2023-11-07T15:00:42.579Z,18.06
2023-11-07T15:03:11.882Z,18.03
2023-11-07T15:05:41.027Z,17.93
2023-11-07T15:08:10.653Z,17.88
2023-11-07T15:10:38.484Z,17.81
2023-11-07T15:13:07.630Z,17.79
2023-11-07T15:15:35.720Z,17.70
2023-11-07T15:18:05.070Z,17.70
2023-11-07T15:20:33.333Z,17.64
2023-11-07T15:23:02.731Z,17.57
2023-11-07T15:25:46.789Z,17.48
2023-11-07T15:28:16.434Z,17.41
2023-11-07T15:30:43.583Z,17.40
2023-11-07T15:33:10.938Z,17.32
2023-11-07T15:35:39.585Z,17.27
2023-11-07T15:38:08.119Z,17.24
2023-11-07T15:40:36.412Z,17.23
2023-11-07T15:43:09.832Z,17.25
2023-11-07T15:45:37.230Z,17.29
2023-11-07T15:48:09.395Z,17.31
2023-11-07T15:50:38.793Z,17.26
2023-11-07T15:53:09.194Z,17.36
2023-11-07T15:55:37.981Z,17.36
2023-11-07T15:58:07.421Z,17.37
2023-11-07T16:00:35.549Z,17.33
2023-11-07T16:03:05.070Z,17.27
2023-11-07T16:05:36.646Z,17.22
2023-11-07T16:08:06.182Z,17.20
2023-11-07T16:10:34.431Z,17.20
2023-11-07T16:13:04.729Z,17.16
2023-11-07T16:15:34.263Z,17.13
2023-11-07T16:18:02.538Z,17.04
2023-11-07T16:20:30.046Z,16.93
2023-11-07T16:22:57.940Z,16.87
2023-11-07T16:25:25.683Z,16.77
2023-11-07T16:27:56.234Z,16.57
2023-11-07T16:30:23.420Z,16.59
2023-11-07T16:32:54.104Z,16.61
2023-11-07T16:35:21.298Z,16.51
2023-11-07T16:37:49.578Z,16.57
2023-11-07T16:40:17.885Z,16.56
2023-11-07T16:42:46.324Z,16.56
2023-11-07T16:45:15.947Z,16.57
2023-11-07T16:47:44.747Z,16.51
2023-11-07T16:50:16.457Z,16.56
2023-11-07T16:52:43.902Z,16.53
2023-11-07T16:55:17.385Z,16.55
2023-11-07T16:57:46.336Z,16.46
2023-11-07T17:00:19.814Z,16.53
2023-11-07T17:02:49.042Z,16.52
2023-11-07T17:05:19.178Z,16.50
2023-11-07T17:07:46.784Z,16.51
2023-11-07T17:10:14.004Z,16.52
2023-11-07T17:12:41.415Z,16.50
2023-11-07T17:15:09.933Z,16.45
2023-11-07T17:17:38.178Z,16.40
2023-11-07T17:20:07.928Z,16.47
2023-11-07T17:22:40.453Z,16.44
2023-11-07T17:25:10.075Z,16.42
2023-11-07T17:27:40.347Z,16.45
2023-11-07T17:30:08.900Z,15.97
2023-11-07T17:32:38.920Z,16.27
2023-11-07T17:35:07.575Z,15.92
2023-11-07T17:37:38.707Z,16.24
2023-11-07T17:40:07.684Z,16.45
2023-11-07T17:42:35.353Z,16.43
2023-11-07T17:45:06.618Z,16.38
2023-11-07T17:47:34.492Z,16.37
2023-11-07T17:50:02.512Z,16.30
2023-11-07T17:52:30.611Z,16.22
2023-11-07T17:55:01.801Z,16.18
2023-11-07T17:57:42.035Z,16.17
2023-11-07T18:00:16.461Z,15.93
2023-11-07T18:02:46.812Z,16.15
2023-11-07T18:05:17.139Z,16.12
2023-11-07T18:07:53.414Z,16.06
2023-11-07T18:10:26.998Z,16.03
2023-11-07T18:13:00.864Z,15.98
2023-11-07T18:15:28.969Z,15.87
2023-11-07T18:17:59.534Z,15.95
2023-11-07T18:20:29.654Z,15.98
2023-11-07T18:22:58.654Z,15.98
2023-11-07T18:25:31.262Z,15.97
2023-11-07T18:27:58.910Z,15.99
2023-11-07T18:30:26.662Z,15.75
2023-11-07T18:33:12.514Z,15.98
2023-11-07T18:35:40.010Z,15.96
2023-11-07T18:38:22.540Z,15.94
2023-11-07T18:40:53.441Z,15.76
2023-11-07T18:43:22.210Z,15.87
2023-11-07T18:45:49.418Z,15.90
2023-11-07T18:48:16.980Z,15.91
2023-11-07T18:50:44.205Z,15.89
2023-11-07T18:53:12.429Z,15.85
2023-11-07T18:55:39.788Z,15.77
2023-11-07T18:58:10.323Z,15.72
2023-11-07T19:00:39.803Z,15.72
2023-11-07T19:03:07.612Z,15.72
2023-11-07T19:05:37.876Z,15.77
2023-11-07T19:08:05.544Z,15.81
2023-11-07T19:10:36.470Z,15.61
2023-11-07T19:13:05.248Z,15.83
2023-11-07T19:15:33.904Z,15.81
2023-11-07T19:18:01.191Z,15.77
2023-11-07T19:20:31.900Z,15.71
2023-11-07T19:23:05.340Z,15.66
2023-11-07T19:25:32.700Z,15.58
2023-11-07T19:28:00.556Z,15.49
2023-11-07T19:30:27.907Z,15.42
2023-11-07T19:32:57.143Z,15.34
2023-11-07T19:35:25.736Z,15.38
2023-11-07T19:37:55.355Z,15.38
2023-11-07T19:40:24.593Z,15.37
2023-11-07T19:42:53.168Z,15.33
2023-11-07T19:45:20.788Z,15.35
2023-11-07T19:47:51.502Z,15.37
2023-11-07T19:50:25.258Z,15.37
2023-11-07T19:53:02.493Z,15.37
2023-11-07T19:55:36.910Z,15.39
2023-11-07T19:58:04.243Z,15.42
2023-11-07T20:00:31.273Z,15.37
2023-11-07T20:02:58.899Z,15.37
2023-11-07T20:05:27.746Z,15.36
2023-11-07T20:07:56.829Z,15.35
2023-11-07T20:10:27.734Z,15.27
2023-11-07T20:12:55.472Z,15.29
2023-11-07T20:15:22.754Z,15.29
2023-11-07T20:17:50.229Z,15.33
2023-11-07T20:20:17.393Z,15.28
2023-11-07T20:22:46.653Z,15.30
2023-11-07T20:25:13.751Z,15.24
2023-11-07T20:27:41.144Z,15.20
2023-11-07T20:30:12.009Z,15.19
2023-11-07T20:32:39.699Z,15.13
2023-11-07T20:35:08.014Z,15.20
2023-11-07T20:37:35.391Z,15.19
2023-11-07T20:40:05.455Z,15.25
2023-11-07T20:42:33.433Z,15.20
2023-11-07T20:45:08.081Z,15.22
2023-11-07T20:47:40.719Z,15.21
2023-11-07T20:50:09.129Z,15.19
2023-11-07T20:52:36.743Z,15.18
2023-11-07T20:55:06.447Z,15.18
2023-11-07T20:57:38.674Z,15.13
2023-11-07T21:00:09.328Z,15.21
2023-11-07T21:02:36.529Z,15.16
2023-11-07T21:05:05.028Z,15.16
2023-11-07T21:07:33.695Z,15.28
2023-11-07T21:10:12.112Z,15.15
2023-11-07T21:12:39.891Z,15.25
2023-11-07T21:15:11.210Z,15.22
2023-11-07T21:17:42.394Z,15.32
2023-11-07T21:20:11.788Z,15.39
2023-11-07T21:22:40.331Z,15.41
2023-11-07T21:25:11.004Z,15.36
2023-11-07T21:27:38.751Z,15.42
2023-11-07T21:30:07.111Z,15.48
2023-11-07T21:32:35.094Z,15.55
2023-11-07T21:35:04.221Z,15.58
2023-11-07T21:37:32.124Z,15.59
2023-11-07T21:39:59.312Z,15.68
2023-11-07T21:42:28.364Z,15.66
2023-11-07T21:44:56.741Z,15.59
2023-11-07T21:47:24.102Z,15.75
2023-11-07T21:49:51.138Z,15.71
2023-11-07T21:52:18.545Z,15.76
2023-11-07T21:54:48.036Z,15.75
2023-11-07T21:57:15.407Z,15.72
2023-11-07T21:59:43.916Z,15.67
2023-11-07T22:02:11.235Z,15.61
2023-11-07T22:04:38.511Z,15.56
2023-11-07T22:07:05.835Z,15.56
2023-11-07T22:09:33.051Z,15.52
2023-11-07T22:12:00.454Z,15.51
2023-11-07T22:14:27.497Z,15.50
2023-11-07T22:16:56.390Z,15.52
2023-11-07T22:19:23.517Z,15.49
2023-11-07T22:21:50.931Z,15.49
2023-11-07T22:24:18.521Z,15.50
2023-11-07T22:26:45.853Z,15.49
2023-11-07T22:29:12.917Z,15.43
2023-11-07T22:31:40.206Z,15.34
2023-11-07T22:34:08.914Z,15.33
2023-11-07T22:36:35.991Z,15.34
2023-11-07T22:39:04.333Z,15.31
2023-11-07T22:41:31.707Z,15.25
2023-11-07T22:43:58.769Z,15.26
2023-11-07T22:46:25.912Z,15.25
2023-11-07T22:48:53.282Z,15.25
2023-11-07T22:51:22.281Z,15.26
2023-11-07T22:53:49.621Z,15.23
2023-11-07T22:56:17.177Z,15.17
2023-11-07T22:58:44.320Z,15.14
2023-11-07T23:01:13.455Z,15.20
2023-11-07T23:03:41.399Z,15.17
2023-11-07T23:06:09.187Z,15.10
2023-11-07T23:08:37.842Z,15.09
2023-11-07T23:11:06.611Z,15.06
2023-11-07T23:13:36.745Z,15.06
2023-11-07T23:16:04.698Z,14.91
2023-11-07T23:18:31.771Z,14.94
2023-11-07T23:20:59.200Z,15.03
2023-11-07T23:23:26.268Z,14.91
2023-11-07T23:25:54.927Z,14.95
2023-11-07T23:28:22.300Z,14.92
2023-11-07T23:30:51.095Z,14.94
2023-11-07T23:33:18.376Z,14.96
2023-11-07T23:35:45.722Z,14.96
2023-11-07T23:38:13.354Z,14.86
2023-11-07T23:40:43.622Z,14.87
2023-11-07T23:43:11.977Z,14.88
2023-11-07T23:45:39.319Z,14.87
2023-11-07T23:48:06.358Z,14.92
2023-11-07T23:50:33.738Z,14.93
2023-11-07T23:53:00.824Z,14.87
2023-11-07T23:55:28.134Z,14.96
2023-11-07T23:57:55.507Z,14.88
